createdAt,value
2022-09-28T02:12:20.692Z,11.13
2022-09-28T02:15:27.168Z,14.93
2022-09-28T02:18:25.916Z,16.90
2022-09-28T02:21:30.222Z,19.90
2022-09-28T02:24:38.237Z,22.35
2022-09-28T02:27:45.179Z,28.30
2022-09-28T02:30:45.496Z,18.60
2022-09-28T02:33:45.082Z,20.35
2022-09-28T02:36:45.479Z,13.52
2022-09-28T02:39:43.559Z,16.70
2022-09-28T02:43:05.115Z,21.55
2022-09-28T02:46:33.185Z,13.00
2022-09-28T02:49:54.516Z,18.48
2022-09-28T02:53:18.017Z,17.98
2022-09-28T02:56:42.027Z,16.30
2022-09-28T03:00:00.353Z,15.40
2022-09-28T03:03:19.668Z,9.00
2022-09-28T03:06:27.897Z,12.00
2022-09-28T03:09:40.501Z,18.77
2022-09-28T03:12:39.733Z,15.43
2022-09-28T03:15:38.772Z,14.38
2022-09-28T03:18:36.918Z,13.88
2022-09-28T03:21:35.577Z,19.48
2022-09-28T03:24:33.698Z,17.08
2022-09-28T03:27:32.342Z,13.73
2022-09-28T03:30:30.457Z,16.25
2022-09-28T03:33:29.299Z,12.63
2022-09-28T03:36:27.526Z,9.35
2022-09-28T03:39:26.219Z,10.40
2022-09-28T03:42:24.295Z,11.85
2022-09-28T03:45:22.920Z,11.00
2022-09-28T03:48:27.626Z,11.93
2022-09-28T03:51:29.432Z,16.83
2022-09-28T03:54:27.577Z,9.82
2022-09-28T03:57:26.194Z,10.85
2022-09-28T04:00:24.773Z,15.98
2022-09-28T04:03:23.447Z,14.35
2022-09-28T04:06:21.588Z,7.38
2022-09-28T04:09:20.283Z,15.32
2022-09-28T04:12:18.398Z,12.65
2022-09-28T04:15:17.138Z,20.05
2022-09-28T04:18:15.205Z,12.57
2022-09-28T04:21:17.231Z,13.27
2022-09-28T04:24:15.392Z,16.13
2022-09-28T04:27:29.680Z,23.23
2022-09-28T04:30:27.881Z,16.15
2022-09-28T04:33:26.557Z,12.65
2022-09-28T04:36:25.537Z,13.13
2022-09-28T04:39:24.118Z,12.20
2022-09-28T04:42:22.234Z,10.60
2022-09-28T04:45:20.924Z,11.32
2022-09-28T04:48:19.353Z,11.38
2022-09-28T04:51:17.987Z,17.08
2022-09-28T04:54:16.318Z,8.38
2022-09-28T04:57:15.021Z,10.30
2022-09-28T05:00:13.907Z,9.70
2022-09-28T05:03:12.543Z,7.28
2022-09-28T05:06:14.543Z,18.45
2022-09-28T05:09:13.171Z,12.25
2022-09-28T05:12:11.294Z,10.75
2022-09-28T05:15:10.353Z,12.65
2022-09-28T05:18:09.321Z,13.50
2022-09-28T05:21:13.553Z,22.20
2022-09-28T05:24:12.407Z,19.38
2022-09-28T05:27:11.093Z,20.25
2022-09-28T05:30:11.290Z,27.80
2022-09-28T05:33:09.981Z,31.38
2022-09-28T05:36:12.015Z,27.75
2022-09-28T05:39:10.853Z,31.92
2022-09-28T05:42:08.996Z,43.42
2022-09-28T05:45:08.164Z,48.80
2022-09-28T05:48:06.499Z,37.30
2022-09-28T05:51:05.485Z,37.30
2022-09-28T05:54:06.107Z,38.33
2022-09-28T05:57:07.492Z,42.45
2022-09-28T06:00:09.428Z,41.10
2022-09-28T06:03:13.415Z,39.60
2022-09-28T06:06:11.503Z,41.75
2022-09-28T06:09:10.134Z,43.33
2022-09-28T06:12:08.398Z,37.08
2022-09-28T06:15:07.633Z,25.30
2022-09-28T06:18:14.631Z,44.58
2022-09-28T06:21:14.787Z,31.83
2022-09-28T06:24:12.996Z,37.92
2022-09-28T06:27:11.711Z,55.35
2022-09-28T06:30:10.538Z,55.08
2022-09-28T06:33:13.260Z,56.88
2022-09-28T06:36:11.401Z,40.85
2022-09-28T06:39:10.160Z,40.58
2022-09-28T06:42:08.436Z,53.95
2022-09-28T06:45:08.160Z,38.38
2022-09-28T06:48:07.219Z,34.53
2022-09-28T06:51:06.065Z,25.77
2022-09-28T06:54:04.451Z,28.45
2022-09-28T06:57:03.054Z,27.48
2022-09-28T07:00:01.567Z,27.48
2022-09-28T07:03:00.812Z,21.80
2022-09-28T07:05:59.168Z,24.70
2022-09-28T07:09:19.190Z,19.95
2022-09-28T07:12:18.390Z,18.45
2022-09-28T07:15:17.077Z,13.35
2022-09-28T07:18:15.445Z,11.13
2022-09-28T07:21:26.617Z,17.52
2022-09-28T07:24:28.923Z,13.35
2022-09-28T07:27:29.121Z,8.60
2022-09-28T07:30:28.904Z,13.60
2022-09-28T07:33:30.732Z,13.45
2022-09-28T07:36:30.306Z,13.00
2022-09-28T07:39:28.890Z,12.88
2022-09-28T07:42:30.295Z,9.57
2022-09-28T07:45:30.889Z,14.77
2022-09-28T07:48:29.418Z,9.02
2022-09-28T07:51:28.338Z,9.32
2022-09-28T07:54:26.424Z,17.00
2022-09-28T07:57:25.634Z,7.97
2022-09-28T08:00:23.796Z,5.47
2022-09-28T08:03:23.095Z,7.78
2022-09-28T08:06:21.194Z,11.02
2022-09-28T08:09:20.075Z,5.35
2022-09-28T08:12:20.089Z,13.90
2022-09-28T08:15:18.722Z,13.02
2022-09-28T08:18:16.848Z,5.85
2022-09-28T08:21:31.093Z,12.07
2022-09-28T08:24:31.395Z,13.85
2022-09-28T08:27:30.009Z,8.73
2022-09-28T08:30:28.272Z,11.52
2022-09-28T08:33:27.319Z,7.75
2022-09-28T08:36:25.567Z,5.57
2022-09-28T08:39:24.355Z,11.60
2022-09-28T08:42:33.379Z,8.55
2022-09-28T08:45:36.369Z,7.82
2022-09-28T08:49:20.500Z,7.25
2022-09-28T08:52:23.867Z,8.43
2022-09-28T08:55:31.671Z,8.73
2022-09-28T08:58:35.856Z,13.45
2022-09-28T09:01:42.379Z,12.40
2022-09-28T09:04:41.490Z,8.50
2022-09-28T09:08:14.404Z,8.70
2022-09-28T09:11:29.979Z,7.97
2022-09-28T09:14:59.195Z,7.45
2022-09-28T09:18:25.883Z,7.68
2022-09-28T09:21:42.167Z,6.50
2022-09-28T09:24:51.664Z,6.25
2022-09-28T09:28:12.148Z,6.50
2022-09-28T09:31:43.519Z,7.78
2022-09-28T09:35:06.003Z,6.70
2022-09-28T09:38:39.824Z,7.93
2022-09-28T09:41:49.937Z,16.05
2022-09-28T09:45:19.173Z,10.18
2022-09-28T09:48:25.576Z,9.65
2022-09-28T09:51:47.866Z,8.88
2022-09-28T09:54:56.949Z,9.65
2022-09-28T09:58:05.168Z,7.90
2022-09-28T10:01:09.745Z,11.82
2022-09-28T10:04:34.540Z,6.20
2022-09-28T10:07:43.541Z,4.72
2022-09-28T10:10:53.626Z,7.18
2022-09-28T10:13:52.426Z,13.70
2022-09-28T10:16:54.262Z,7.80
2022-09-28T10:19:52.351Z,6.97
2022-09-28T10:22:52.482Z,5.70
2022-09-28T10:25:54.832Z,21.13
2022-09-28T10:29:00.683Z,3.75
2022-09-28T10:31:58.765Z,15.57
2022-09-28T10:35:23.148Z,7.60
2022-09-28T10:38:22.820Z,9.30
2022-09-28T10:41:23.250Z,6.57
2022-09-28T10:44:22.729Z,7.93
2022-09-28T10:47:25.211Z,4.60
2022-09-28T10:50:28.501Z,5.22
2022-09-28T10:53:27.283Z,9.00
2022-09-28T10:56:29.516Z,5.68
2022-09-28T10:59:41.953Z,9.95
2022-09-28T11:02:41.938Z,5.75
2022-09-28T11:05:40.817Z,12.13
2022-09-28T11:08:44.710Z,4.18
2022-09-28T11:11:44.438Z,8.20
2022-09-28T11:14:44.902Z,19.00
2022-09-28T11:17:44.854Z,8.27
2022-09-28T11:20:45.403Z,7.43
2022-09-28T11:24:06.997Z,12.10
2022-09-28T11:27:05.171Z,5.57
2022-09-28T11:30:04.094Z,10.27
2022-09-28T11:33:07.964Z,8.75
2022-09-28T11:36:22.150Z,11.18
2022-09-28T11:39:40.432Z,8.68
2022-09-28T11:46:14.244Z,11.45
2022-09-28T11:49:30.196Z,4.72
2022-09-28T11:52:46.665Z,6.53
2022-09-28T11:56:01.772Z,11.20
2022-09-28T11:59:20.172Z,13.85
2022-09-28T12:02:40.186Z,11.77
2022-09-28T12:05:49.861Z,19.20
2022-09-28T12:08:55.911Z,11.70
2022-09-28T12:12:02.201Z,12.95
2022-09-28T12:15:13.371Z,8.80
2022-09-28T12:18:25.296Z,8.23
2022-09-28T12:21:38.249Z,8.70
2022-09-28T12:24:48.012Z,11.50
2022-09-28T12:27:54.305Z,10.93
2022-09-28T12:30:53.098Z,9.23
2022-09-28T12:33:52.833Z,5.68
2022-09-28T12:37:09.514Z,10.75
2022-09-28T12:40:31.717Z,17.52
2022-09-28T12:43:55.040Z,5.97
2022-09-28T12:47:22.946Z,7.10
2022-09-28T12:54:13.531Z,9.43
2022-09-28T12:57:39.912Z,12.25
2022-09-28T13:00:55.869Z,17.30
2022-09-28T13:04:35.493Z,11.85
2022-09-28T13:07:58.210Z,14.77
2022-09-28T13:11:20.994Z,15.20
2022-09-28T13:14:50.728Z,11.65
2022-09-28T13:18:10.179Z,20.65
2022-09-28T13:21:29.437Z,16.45
2022-09-28T13:24:33.969Z,8.05
2022-09-28T13:27:37.679Z,12.60
2022-09-28T13:30:39.597Z,12.85
2022-09-28T13:33:42.045Z,15.05
2022-09-28T13:36:44.500Z,14.20
2022-09-28T13:39:53.338Z,9.77
2022-09-28T13:43:05.917Z,15.30
2022-09-28T13:46:19.494Z,14.80
2022-09-28T13:49:49.044Z,18.35
2022-09-28T13:53:08.656Z,17.40
2022-09-28T13:56:27.841Z,13.73
2022-09-28T13:59:30.238Z,8.50
2022-09-28T14:02:56.372Z,15.95
2022-09-28T14:06:25.611Z,18.77
2022-09-28T14:09:27.725Z,8.60
2022-09-28T14:12:48.258Z,9.32
2022-09-28T14:15:46.548Z,13.63
2022-09-28T14:18:56.672Z,7.35
2022-09-28T14:22:16.815Z,7.13
2022-09-28T14:25:26.519Z,6.63
2022-09-28T14:28:57.234Z,3.88
2022-09-28T14:31:59.609Z,8.93
2022-09-28T14:35:01.313Z,3.92
2022-09-28T14:38:25.951Z,5.03
2022-09-28T14:41:34.181Z,7.53
2022-09-28T14:45:08.115Z,3.90
2022-09-28T14:48:19.513Z,5.10
2022-09-28T14:51:53.436Z,4.00
2022-09-28T14:54:54.761Z,4.35
2022-09-28T14:57:57.442Z,6.25
2022-09-28T15:01:01.415Z,7.63
2022-09-28T15:04:05.077Z,2.60
2022-09-28T15:07:04.092Z,8.27
2022-09-28T15:10:04.065Z,8.93
2022-09-28T15:13:17.073Z,4.80
2022-09-28T15:16:18.188Z,6.13
2022-09-28T15:19:32.486Z,3.85
2022-09-28T15:22:31.235Z,10.88
2022-09-28T15:25:32.220Z,3.88
2022-09-28T15:28:31.247Z,4.05
2022-09-28T15:31:35.020Z,10.35
2022-09-28T15:34:52.538Z,3.70
2022-09-28T15:37:52.646Z,5.20
2022-09-28T15:40:51.680Z,6.00
2022-09-28T15:44:07.683Z,6.15
2022-09-28T15:47:11.542Z,6.32
2022-09-28T15:50:24.454Z,8.23
2022-09-28T15:53:23.176Z,8.77
2022-09-28T15:56:21.455Z,6.22
2022-09-28T15:59:32.603Z,4.55
2022-09-28T16:02:33.601Z,9.48
2022-09-28T16:05:38.453Z,5.93
2022-09-28T16:08:43.119Z,11.18
2022-09-28T16:11:42.117Z,7.38
2022-09-28T16:14:40.217Z,2.38
2022-09-28T16:17:39.114Z,6.68
2022-09-28T16:20:41.083Z,7.00
2022-09-28T16:23:41.858Z,9.65
2022-09-28T16:26:40.175Z,5.85
2022-09-28T16:29:41.339Z,3.80
2022-09-28T16:32:56.821Z,5.10
2022-09-28T16:35:55.478Z,6.22
2022-09-28T16:38:55.275Z,4.43
2022-09-28T16:41:59.829Z,6.82
2022-09-28T16:44:58.106Z,3.65
2022-09-28T16:47:58.010Z,4.10
2022-09-28T16:50:57.265Z,7.10
2022-09-28T16:54:16.416Z,4.43
2022-09-28T16:57:18.032Z,9.07
2022-09-28T17:00:21.550Z,4.35
2022-09-28T17:03:23.866Z,7.53
2022-09-28T17:06:27.268Z,4.25
2022-09-28T17:09:25.689Z,5.05
2022-09-28T17:12:31.172Z,9.68
2022-09-28T17:15:30.292Z,9.73
2022-09-28T17:18:32.165Z,6.00
2022-09-28T17:21:30.308Z,2.97
2022-09-28T17:24:29.424Z,8.23
2022-09-28T17:27:28.100Z,10.73
2022-09-28T17:30:26.867Z,3.83
2022-09-28T17:33:25.587Z,7.53
2022-09-28T17:36:27.726Z,7.85
2022-09-28T17:39:25.862Z,4.35
2022-09-28T17:42:24.435Z,10.82
2022-09-28T17:45:24.130Z,5.60
2022-09-28T17:48:24.718Z,6.43
2022-09-28T17:51:24.163Z,6.38
2022-09-28T17:54:23.136Z,5.78
2022-09-28T17:57:21.761Z,4.13
2022-09-28T18:00:20.470Z,4.68
2022-09-28T18:03:21.880Z,5.85
2022-09-28T18:06:22.713Z,7.30
2022-09-28T18:09:25.476Z,5.97
2022-09-28T18:12:25.517Z,5.38
2022-09-28T18:15:23.872Z,6.95
2022-09-28T18:18:27.776Z,7.47
2022-09-28T18:21:26.091Z,6.38
2022-09-28T18:24:24.871Z,7.50
2022-09-28T18:27:22.911Z,6.13
2022-09-28T18:30:21.528Z,6.13
2022-09-28T18:33:22.375Z,7.40
2022-09-28T18:36:21.247Z,3.50
2022-09-28T18:39:19.562Z,8.20
2022-09-28T18:42:18.440Z,5.57
2022-09-28T18:45:17.668Z,5.88
2022-09-28T18:48:16.668Z,5.75
2022-09-28T18:51:15.072Z,4.07
2022-09-28T18:54:13.923Z,3.60
2022-09-28T18:57:12.132Z,3.60
2022-09-28T19:00:12.328Z,4.72
2022-09-28T19:03:11.715Z,4.85
2022-09-28T19:06:13.595Z,6.47
2022-09-28T19:09:12.098Z,5.68
2022-09-28T19:12:12.864Z,2.70
2022-09-28T19:15:11.176Z,5.80
2022-09-28T19:18:09.934Z,6.57
2022-09-28T19:21:10.219Z,6.57
2022-09-28T19:24:11.473Z,5.28
2022-09-28T19:27:09.603Z,9.10
2022-09-28T19:30:09.071Z,4.47
2022-09-28T19:33:07.313Z,3.22
2022-09-28T19:36:08.513Z,6.07
2022-09-28T19:39:07.640Z,9.07
2022-09-28T19:42:09.049Z,7.63
2022-09-28T19:45:10.631Z,1.48
2022-09-28T19:48:09.173Z,6.70
2022-09-28T19:51:09.088Z,7.97
2022-09-28T19:54:10.442Z,3.95
2022-09-28T19:57:09.119Z,5.30
2022-09-28T20:00:08.718Z,7.75
2022-09-28T20:03:08.670Z,2.80
2022-09-28T20:06:07.599Z,3.38
2022-09-28T20:09:07.262Z,5.65
2022-09-28T20:12:05.993Z,4.32
2022-09-28T20:15:05.518Z,4.65
2022-09-28T20:18:04.229Z,3.35
2022-09-28T20:21:06.053Z,3.22
2022-09-28T20:24:05.628Z,4.90
2022-09-28T20:27:03.752Z,4.30
2022-09-28T20:30:02.881Z,2.83
2022-09-28T20:33:04.664Z,3.50
2022-09-28T20:36:08.291Z,6.90
2022-09-28T20:39:06.495Z,6.25
2022-09-28T20:42:05.319Z,10.20
2022-09-28T20:45:05.870Z,5.82
2022-09-28T20:48:06.862Z,7.75
2022-09-28T20:51:10.683Z,7.78
2022-09-28T20:54:09.407Z,8.90
2022-09-28T20:57:17.774Z,7.45
2022-09-28T21:00:16.864Z,5.20
2022-09-28T21:03:15.109Z,6.47
2022-09-28T21:06:14.755Z,9.52
2022-09-28T21:09:13.084Z,8.35
2022-09-28T21:12:12.042Z,4.60
2022-09-28T21:15:10.761Z,4.97
2022-09-28T21:18:09.454Z,6.95
2022-09-28T21:21:09.417Z,10.30
2022-09-28T21:24:08.409Z,8.57
2022-09-28T21:27:06.530Z,11.25
2022-09-28T21:30:05.825Z,5.47
2022-09-28T21:33:03.938Z,9.23
2022-09-28T21:36:04.572Z,5.75
2022-09-28T21:39:05.960Z,9.85
2022-09-28T21:42:07.278Z,7.18
2022-09-28T21:45:05.939Z,7.28
2022-09-28T21:48:04.673Z,13.43
2022-09-28T21:51:05.559Z,13.65
2022-09-28T21:54:04.515Z,14.32
2022-09-28T21:57:02.612Z,10.45
2022-09-28T22:00:01.311Z,7.55
2022-09-28T22:02:59.603Z,10.10
2022-09-28T22:05:58.626Z,7.68
2022-09-28T22:08:59.543Z,7.15
2022-09-28T22:11:58.134Z,10.15
2022-09-28T22:14:56.515Z,8.98
2022-09-28T22:17:55.207Z,9.82
2022-09-28T22:21:02.333Z,7.32
2022-09-28T22:24:03.101Z,9.10
2022-09-28T22:27:01.228Z,11.65
2022-09-28T22:29:59.878Z,8.00
2022-09-28T22:32:58.060Z,6.00
2022-09-28T22:35:56.729Z,7.32
2022-09-28T22:38:56.026Z,7.22
2022-09-28T22:41:54.818Z,13.77
2022-09-28T22:44:52.913Z,9.70
2022-09-28T22:47:51.495Z,5.95
2022-09-28T22:50:52.071Z,12.13
2022-09-28T22:53:50.802Z,7.88
2022-09-28T22:56:49.034Z,6.90
2022-09-28T22:59:47.648Z,10.40
2022-09-28T23:02:45.837Z,7.55
2022-09-28T23:05:59.902Z,11.77
2022-09-28T23:08:58.268Z,6.78
2022-09-28T23:11:56.902Z,8.10
2022-09-28T23:14:54.946Z,9.63
2022-09-28T23:17:54.154Z,8.40
2022-09-28T23:20:54.873Z,6.13
2022-09-28T23:23:56.795Z,5.07
2022-09-28T23:26:55.044Z,5.68
2022-09-28T23:29:54.877Z,7.20
2022-09-28T23:32:53.934Z,11.93
2022-09-28T23:35:52.991Z,3.05
2022-09-28T23:38:51.141Z,5.05
2022-09-28T23:41:49.860Z,13.45
2022-09-28T23:44:47.909Z,7.80
2022-09-28T23:47:46.499Z,9.93
2022-09-28T23:50:45.596Z,2.97
2022-09-28T23:53:44.357Z,5.70
2022-09-28T23:56:42.463Z,4.63
2022-09-28T23:59:41.046Z,5.15
